sensor_id;sensor_type;location;lat;lon;timestamp;pressure;altitude;pressure_sealevel;temperature;humidity
57056;BME280;42945;51.718;5.324;2022-07-15T00:01:41;102039.34;;;12.57;85.27
57056;BME280;42945;51.718;5.324;2022-07-15T00:04:07;102016.06;;;12.43;85.12
57056;BME280;42945;51.718;5.324;2022-07-15T00:06:32;101953.75;;;11.70;85.61
57056;BME280;42945;51.718;5.324;2022-07-15T00:08:58;102047.81;;;12.46;85.11
57056;BME280;42945;51.718;5.324;2022-07-15T00:11:23;102029.47;;;12.40;86.04
57056;BME280;42945;51.718;5.324;2022-07-15T00:13:48;101961.63;;;12.31;85.99
57056;BME280;42945;51.718;5.324;2022-07-15T00:16:14;102018.56;;;12.27;87.59
57056;BME280;42945;51.718;5.324;2022-07-15T00:18:40;102041.31;;;12.33;85.67
57056;BME280;42945;51.718;5.324;2022-07-15T00:21:06;102037.25;;;12.26;86.95
57056;BME280;42945;51.718;5.324;2022-07-15T00:23:31;102075.50;;;12.42;86.62
57056;BME280;42945;51.718;5.324;2022-07-15T00:25:57;102023.94;;;12.26;87.49
57056;BME280;42945;51.718;5.324;2022-07-15T00:28:22;102009.91;;;12.22;87.56
57056;BME280;42945;51.718;5.324;2022-07-15T00:30:49;101762.91;;;10.61;86.50
57056;BME280;42945;51.718;5.324;2022-07-15T00:33:14;101894.69;;;11.63;86.69
57056;BME280;42945;51.718;5.324;2022-07-15T00:35:39;101994.25;;;12.16;87.09
57056;BME280;42945;51.718;5.324;2022-07-15T00:38:08;102013.38;;;12.24;87.93
57056;BME280;42945;51.718;5.324;2022-07-15T00:40:42;102007.66;;;12.13;87.62
57056;BME280;42945;51.718;5.324;2022-07-15T00:43:09;102011.00;;;12.18;87.45
57056;BME280;42945;51.718;5.324;2022-07-15T00:45:34;102057.41;;;12.11;88.30
57056;BME280;42945;51.718;5.324;2022-07-15T00:48:00;116428.38;;;96.13;95.35
57056;BME280;42945;51.718;5.324;2022-07-15T00:50:43;102017.75;;;12.06;89.47
57056;BME280;42945;51.718;5.324;2022-07-15T00:53:20;101897.50;;;11.39;90.26
57056;BME280;42945;51.718;5.324;2022-07-15T00:55:46;102045.47;;;12.00;88.52
57056;BME280;42945;51.718;5.324;2022-07-15T00:58:17;102032.81;;;12.06;87.47
57056;BME280;42945;51.718;5.324;2022-07-15T01:00:45;101905.69;;;11.35;88.22
57056;BME280;42945;51.718;5.324;2022-07-15T01:03:10;102040.25;;;11.97;87.90
57056;BME280;42945;51.718;5.324;2022-07-15T01:05:37;102003.03;;;11.97;88.97
57056;BME280;42945;51.718;5.324;2022-07-15T01:08:02;102025.25;;;11.96;89.33
57056;BME280;42945;51.718;5.324;2022-07-15T01:10:29;101984.81;;;11.88;89.19
57056;BME280;42945;51.718;5.324;2022-07-15T01:12:54;102050.97;;;11.96;88.79
57056;BME280;42945;51.718;5.324;2022-07-15T01:15:20;102018.72;;;11.83;88.43
57056;BME280;42945;51.718;5.324;2022-07-15T01:17:46;101970.09;;;11.81;88.73
57056;BME280;42945;51.718;5.324;2022-07-15T01:20:12;102032.75;;;11.87;88.80
57056;BME280;42945;51.718;5.324;2022-07-15T01:22:39;101991.19;;;11.84;89.16
57056;BME280;42945;51.718;5.324;2022-07-15T01:25:05;101895.63;;;11.22;89.79
57056;BME280;42945;51.718;5.324;2022-07-15T01:27:34;101994.13;;;11.78;89.32
57056;BME280;42945;51.718;5.324;2022-07-15T01:29:59;102004.44;;;11.86;89.37
57056;BME280;42945;51.718;5.324;2022-07-15T01:32:26;101930.31;;;11.18;90.47
57056;BME280;42945;51.718;5.324;2022-07-15T01:34:52;102058.34;;;11.89;90.79
57056;BME280;42945;51.718;5.324;2022-07-15T01:37:18;102014.53;;;11.77;89.13
57056;BME280;42945;51.718;5.324;2022-07-15T01:39:44;102062.59;;;11.93;89.81
57056;BME280;42945;51.718;5.324;2022-07-15T01:42:09;101933.59;;;11.25;89.25
57056;BME280;42945;51.718;5.324;2022-07-15T01:44:35;102048.41;;;11.94;88.92
57056;BME280;42945;51.718;5.324;2022-07-15T01:47:01;102046.09;;;11.85;89.53
57056;BME280;42945;51.718;5.324;2022-07-15T01:49:26;102032.28;;;11.77;88.55
57056;BME280;42945;51.718;5.324;2022-07-15T01:51:53;101952.81;;;11.09;89.24
57056;BME280;42945;51.718;5.324;2022-07-15T01:54:23;102008.22;;;11.80;89.49
57056;BME280;42945;51.718;5.324;2022-07-15T01:56:50;102071.66;;;11.89;90.40
57056;BME280;42945;51.718;5.324;2022-07-15T01:59:15;102028.09;;;11.71;90.65
57056;BME280;42945;51.718;5.324;2022-07-15T02:01:41;102004.13;;;11.52;90.82
57056;BME280;42945;51.718;5.324;2022-07-15T02:04:08;102055.50;;;11.51;91.03
57056;BME280;42945;51.718;5.324;2022-07-15T02:06:33;102059.31;;;11.66;93.75
57056;BME280;42945;51.718;5.324;2022-07-15T02:08:58;101890.53;;;10.75;93.01
57056;BME280;42945;51.718;5.324;2022-07-15T02:11:24;102073.72;;;11.40;92.43
57056;BME280;42945;51.718;5.324;2022-07-15T02:13:49;102022.69;;;11.32;93.55
57056;BME280;42945;51.718;5.324;2022-07-15T02:16:14;102020.44;;;11.43;93.47
57056;BME280;42945;51.718;5.324;2022-07-15T02:18:40;101801.72;;;10.19;93.36
57056;BME280;42945;51.718;5.324;2022-07-15T02:21:05;101936.44;;;10.77;92.95
57056;BME280;42945;51.718;5.324;2022-07-15T02:23:30;102064.09;;;11.58;93.04
57056;BME280;42945;51.718;5.324;2022-07-15T02:25:56;102053.91;;;11.47;93.03
57056;BME280;42945;51.718;5.324;2022-07-15T02:28:21;102097.97;;;11.53;93.44
57056;BME280;42945;51.718;5.324;2022-07-15T02:30:47;101740.19;;;11.34;92.38
57056;BME280;42945;51.718;5.324;2022-07-15T02:33:12;102038.75;;;11.29;93.26
57056;BME280;42945;51.718;5.324;2022-07-15T02:35:39;102061.63;;;11.53;93.19
57056;BME280;42945;51.718;5.324;2022-07-15T02:38:04;102034.97;;;11.34;93.65
57056;BME280;42945;51.718;5.324;2022-07-15T02:40:30;102021.28;;;11.43;92.32
57056;BME280;42945;51.718;5.324;2022-07-15T02:42:59;102026.28;;;11.31;93.97
57056;BME280;42945;51.718;5.324;2022-07-15T02:45:26;101953.25;;;10.78;92.95
57056;BME280;42945;51.718;5.324;2022-07-15T02:47:52;102002.31;;;11.32;93.36
57056;BME280;42945;51.718;5.324;2022-07-15T02:50:19;102063.88;;;11.42;92.73
57056;BME280;42945;51.718;5.324;2022-07-15T02:52:44;102005.16;;;11.28;92.48
57056;BME280;42945;51.718;5.324;2022-07-15T02:55:12;102014.53;;;11.36;93.65
57056;BME280;42945;51.718;5.324;2022-07-15T02:57:38;102022.09;;;11.25;93.48
57056;BME280;42945;51.718;5.324;2022-07-15T03:00:07;102064.25;;;11.33;93.58
57056;BME280;42945;51.718;5.324;2022-07-15T03:02:33;101930.88;;;10.61;93.45
57056;BME280;42945;51.718;5.324;2022-07-15T03:04:58;102032.66;;;11.04;93.53
57056;BME280;42945;51.718;5.324;2022-07-15T03:07:24;102067.66;;;11.14;93.59
57056;BME280;42945;51.718;5.324;2022-07-15T03:09:49;102062.22;;;11.17;94.33
57056;BME280;42945;51.718;5.324;2022-07-15T03:12:14;101945.75;;;10.43;96.23
57056;BME280;42945;51.718;5.324;2022-07-15T03:14:40;102051.88;;;11.11;96.18
57056;BME280;42945;51.718;5.324;2022-07-15T03:17:07;102051.22;;;11.04;95.88
57056;BME280;42945;51.718;5.324;2022-07-15T03:19:32;102073.72;;;10.96;97.03
57056;BME280;42945;51.718;5.324;2022-07-15T03:21:58;102094.34;;;11.11;98.19
57056;BME280;42945;51.718;5.324;2022-07-15T03:24:24;101953.81;;;10.40;97.75
57056;BME280;42945;51.718;5.324;2022-07-15T03:26:49;102094.09;;;10.95;98.53
57056;BME280;42945;51.718;5.324;2022-07-15T03:29:14;102099.19;;;11.00;98.65
57056;BME280;42945;51.718;5.324;2022-07-15T03:31:42;102086.78;;;11.00;98.90
57056;BME280;42945;51.718;5.324;2022-07-15T03:34:07;102085.56;;;11.09;97.60
57056;BME280;42945;51.718;5.324;2022-07-15T03:36:32;102174.00;;;11.55;100.00
57056;BME280;42945;51.718;5.324;2022-07-15T03:38:58;102044.94;;;11.07;98.66
57056;BME280;42945;51.718;5.324;2022-07-15T03:41:23;101947.72;;;10.38;97.88
57056;BME280;42945;51.718;5.324;2022-07-15T03:43:48;102130.31;;;11.18;96.78
57056;BME280;42945;51.718;5.324;2022-07-15T03:46:13;102081.34;;;11.26;96.75
57056;BME280;42945;51.718;5.324;2022-07-15T03:48:40;101861.78;;;9.98;95.96
57056;BME280;42945;51.718;5.324;2022-07-15T03:51:07;101974.88;;;10.67;96.05
57056;BME280;42945;51.718;5.324;2022-07-15T03:53:32;102106.06;;;11.28;96.29
57056;BME280;42945;51.718;5.324;2022-07-15T03:55:57;102189.75;;;11.82;96.75
57056;BME280;42945;51.718;5.324;2022-07-15T03:58:23;102091.06;;;11.27;96.82
57056;BME280;42945;51.718;5.324;2022-07-15T04:00:48;101905.91;;;10.45;96.65
57056;BME280;42945;51.718;5.324;2022-07-15T04:03:14;102054.97;;;11.43;96.48
57056;BME280;42945;51.718;5.324;2022-07-15T04:05:39;102146.09;;;11.45;96.80
57056;BME280;42945;51.718;5.324;2022-07-15T04:08:05;102132.38;;;11.56;96.50
57056;BME280;42945;51.718;5.324;2022-07-15T04:10:30;101987.28;;;10.89;96.06
57056;BME280;42945;51.718;5.324;2022-07-15T04:12:57;102067.72;;;11.55;96.78
57056;BME280;42945;51.718;5.324;2022-07-15T04:15:22;102102.09;;;11.60;96.81
57056;BME280;42945;51.718;5.324;2022-07-15T04:17:47;102130.63;;;11.77;96.05
57056;BME280;42945;51.718;5.324;2022-07-15T04:20:13;102113.56;;;11.82;95.86
57056;BME280;42945;51.718;5.324;2022-07-15T04:22:39;102101.94;;;11.85;96.30
57056;BME280;42945;51.718;5.324;2022-07-15T04:25:06;101971.63;;;11.25;95.86
57056;BME280;42945;51.718;5.324;2022-07-15T04:27:32;102088.97;;;11.98;96.32
57056;BME280;42945;51.718;5.324;2022-07-15T04:29:57;102146.09;;;12.10;93.80
57056;BME280;42945;51.718;5.324;2022-07-15T04:32:22;102146.47;;;12.21;93.72
57056;BME280;42945;51.718;5.324;2022-07-15T04:34:50;102122.50;;;12.02;93.15
57056;BME280;42945;51.718;5.324;2022-07-15T04:37:15;102009.22;;;11.57;92.33
57056;BME280;42945;51.718;5.324;2022-07-15T04:39:41;102102.06;;;12.23;92.58
57056;BME280;42945;51.718;5.324;2022-07-15T04:42:06;102072.47;;;12.31;92.76
57056;BME280;42945;51.718;5.324;2022-07-15T04:44:31;102100.53;;;12.38;91.48
57056;BME280;42945;51.718;5.324;2022-07-15T04:46:57;102023.19;;;11.82;90.43
57056;BME280;42945;51.718;5.324;2022-07-15T04:49:22;102119.03;;;12.41;91.22
57056;BME280;42945;51.718;5.324;2022-07-15T04:52:05;102144.84;;;12.58;90.05
57056;BME280;42945;51.718;5.324;2022-07-15T04:54:32;102123.00;;;12.70;89.30
57056;BME280;42945;51.718;5.324;2022-07-15T04:56:58;102123.06;;;12.69;89.22
57056;BME280;42945;51.718;5.324;2022-07-15T04:59:23;102113.22;;;12.71;89.28
57056;BME280;42945;51.718;5.324;2022-07-15T05:01:48;102125.88;;;12.66;88.14
57056;BME280;42945;51.718;5.324;2022-07-15T05:04:13;102125.31;;;12.78;88.26
57056;BME280;42945;51.718;5.324;2022-07-15T05:06:39;102077.19;;;12.83;88.61
57056;BME280;42945;51.718;5.324;2022-07-15T05:09:04;102128.69;;;13.00;87.87
57056;BME280;42945;51.718;5.324;2022-07-15T05:11:29;102134.53;;;13.09;86.81
57056;BME280;42945;51.718;5.324;2022-07-15T05:13:55;102278.78;;;13.39;86.92
57056;BME280;42945;51.718;5.324;2022-07-15T05:16:20;102191.53;;;13.62;86.74
57056;BME280;42945;51.718;5.324;2022-07-15T05:18:45;102116.31;;;13.18;86.14
57056;BME280;42945;51.718;5.324;2022-07-15T05:21:11;102069.91;;;13.05;85.85
57056;BME280;42945;51.718;5.324;2022-07-15T05:23:36;101962.59;;;12.67;86.23
57056;BME280;42945;51.718;5.324;2022-07-15T05:26:01;102138.34;;;13.58;86.05
57056;BME280;42945;51.718;5.324;2022-07-15T05:28:27;102050.19;;;13.63;84.18
57056;BME280;42945;51.718;5.324;2022-07-15T05:30:52;101996.66;;;12.77;82.28
57056;BME280;42945;51.718;5.324;2022-07-15T05:33:18;102147.53;;;13.70;82.11
57056;BME280;42945;51.718;5.324;2022-07-15T05:35:44;101994.47;;;13.22;81.48
57056;BME280;42945;51.718;5.324;2022-07-15T05:38:09;102110.41;;;13.85;80.32
57056;BME280;42945;51.718;5.324;2022-07-15T05:40:35;102127.25;;;13.85;79.31
57056;BME280;42945;51.718;5.324;2022-07-15T05:43:01;102089.38;;;13.78;78.31
57056;BME280;42945;51.718;5.324;2022-07-15T05:45:26;102097.06;;;13.85;78.27
57056;BME280;42945;51.718;5.324;2022-07-15T05:47:51;102092.03;;;13.96;78.60
57056;BME280;42945;51.718;5.324;2022-07-15T05:50:17;102039.03;;;13.55;77.75
57056;BME280;42945;51.718;5.324;2022-07-15T05:52:43;102004.88;;;13.63;76.94
57056;BME280;42945;51.718;5.324;2022-07-15T05:55:09;101883.63;;;12.85;76.43
57056;BME280;42945;51.718;5.324;2022-07-15T05:57:34;102122.66;;;14.40;76.32
57056;BME280;42945;51.718;5.324;2022-07-15T05:59:59;102142.75;;;14.47;75.51
57056;BME280;42945;51.718;5.324;2022-07-15T06:02:25;102063.66;;;14.28;75.46
57056;BME280;42945;51.718;5.324;2022-07-15T06:04:50;102021.53;;;14.02;76.02
57056;BME280;42945;51.718;5.324;2022-07-15T06:07:15;102140.91;;;14.65;74.66
57056;BME280;42945;51.718;5.324;2022-07-15T06:09:41;102123.81;;;14.51;75.88
57056;BME280;42945;51.718;5.324;2022-07-15T06:12:06;102051.59;;;15.02;75.47
57056;BME280;42945;51.718;5.324;2022-07-15T06:14:31;102102.00;;;14.76;75.99
57056;BME280;42945;51.718;5.324;2022-07-15T06:16:57;102091.81;;;14.67;73.97
57056;BME280;42945;51.718;5.324;2022-07-15T06:19:22;102090.03;;;14.84;72.66
57056;BME280;42945;51.718;5.324;2022-07-15T06:21:48;102139.03;;;14.83;73.68
57056;BME280;42945;51.718;5.324;2022-07-15T06:24:13;102127.09;;;14.90;71.79
57056;BME280;42945;51.718;5.324;2022-07-15T06:26:38;102121.91;;;14.87;72.57
57056;BME280;42945;51.718;5.324;2022-07-15T06:29:04;102104.09;;;14.87;72.32
57056;BME280;42945;51.718;5.324;2022-07-15T06:31:30;102071.22;;;15.17;71.47
57056;BME280;42945;51.718;5.324;2022-07-15T06:33:55;101975.44;;;14.31;70.70
57056;BME280;42945;51.718;5.324;2022-07-15T06:36:24;102118.22;;;15.05;71.17
57056;BME280;42945;51.718;5.324;2022-07-15T06:38:49;102060.63;;;15.15;71.27
57056;BME280;42945;51.718;5.324;2022-07-15T06:41:15;102129.53;;;15.72;70.49
57056;BME280;42945;51.718;5.324;2022-07-15T06:43:41;102018.63;;;14.71;70.40
57056;BME280;42945;51.718;5.324;2022-07-15T06:46:08;102078.91;;;15.07;70.75
57056;BME280;42945;51.718;5.324;2022-07-15T06:48:33;102009.44;;;14.44;72.26
57056;BME280;42945;51.718;5.324;2022-07-15T06:50:58;102112.28;;;15.78;70.50
57056;BME280;42945;51.718;5.324;2022-07-15T06:53:24;102153.28;;;15.31;69.82
57056;BME280;42945;51.718;5.324;2022-07-15T06:55:50;102109.72;;;15.45;69.44
57056;BME280;42945;51.718;5.324;2022-07-15T06:58:15;101986.44;;;15.05;69.02
57056;BME280;42945;51.718;5.324;2022-07-15T07:00:42;102137.47;;;15.74;68.52
57056;BME280;42945;51.718;5.324;2022-07-15T07:03:07;102080.84;;;15.82;69.44
57056;BME280;42945;51.718;5.324;2022-07-15T07:05:32;102100.56;;;15.65;69.92
57056;BME280;42945;51.718;5.324;2022-07-15T07:07:58;102081.41;;;15.56;69.89
57056;BME280;42945;51.718;5.324;2022-07-15T07:10:23;102020.47;;;15.17;68.71
57056;BME280;42945;51.718;5.324;2022-07-15T07:12:51;102020.34;;;15.65;67.97
57056;BME280;42945;51.718;5.324;2022-07-15T07:15:16;102105.81;;;15.97;65.45
57056;BME280;42945;51.718;5.324;2022-07-15T07:17:42;102161.97;;;15.82;66.63
57056;BME280;42945;51.718;5.324;2022-07-15T07:20:08;102136.28;;;16.39;65.19
57056;BME280;42945;51.718;5.324;2022-07-15T07:22:35;102158.94;;;16.47;64.23
57056;BME280;42945;51.718;5.324;2022-07-15T07:25:01;102005.00;;;15.97;62.37
57056;BME280;42945;51.718;5.324;2022-07-15T07:27:26;101998.34;;;15.60;64.01
57056;BME280;42945;51.718;5.324;2022-07-15T07:29:52;102113.50;;;16.17;63.26
57056;BME280;42945;51.718;5.324;2022-07-15T07:32:17;102016.13;;;15.30;62.82
57056;BME280;42945;51.718;5.324;2022-07-15T07:34:42;102122.41;;;15.87;63.71
57056;BME280;42945;51.718;5.324;2022-07-15T07:37:07;102145.06;;;16.26;61.10
57056;BME280;42945;51.718;5.324;2022-07-15T07:39:33;102097.94;;;16.24;62.21
57056;BME280;42945;51.718;5.324;2022-07-15T07:41:58;102128.16;;;16.54;62.92
57056;BME280;42945;51.718;5.324;2022-07-15T07:44:23;102122.03;;;16.67;62.07
57056;BME280;42945;51.718;5.324;2022-07-15T07:46:49;102080.63;;;16.58;62.22
57056;BME280;42945;51.718;5.324;2022-07-15T07:49:14;102099.16;;;16.76;61.52
57056;BME280;42945;51.718;5.324;2022-07-15T07:51:40;102000.34;;;16.15;61.80
57056;BME280;42945;51.718;5.324;2022-07-15T07:54:07;102061.16;;;16.98;61.76
57056;BME280;42945;51.718;5.324;2022-07-15T07:56:32;102068.75;;;17.18;61.31
57056;BME280;42945;51.718;5.324;2022-07-15T07:58:58;102095.53;;;16.91;62.15
57056;BME280;42945;51.718;5.324;2022-07-15T08:01:23;102137.25;;;16.66;61.77
57056;BME280;42945;51.718;5.324;2022-07-15T08:03:49;102136.84;;;17.43;60.44
57056;BME280;42945;51.718;5.324;2022-07-15T08:06:15;101876.69;;;15.67;60.84
57056;BME280;42945;51.718;5.324;2022-07-15T08:08:40;102093.81;;;16.90;60.30
57056;BME280;42945;51.718;5.324;2022-07-15T08:11:06;102145.28;;;16.95;61.55
57056;BME280;42945;51.718;5.324;2022-07-15T08:13:31;102011.59;;;15.91;60.60
57056;BME280;42945;51.718;5.324;2022-07-15T08:15:57;102133.03;;;16.33;61.13
57056;BME280;42945;51.718;5.324;2022-07-15T08:18:23;102105.34;;;17.05;61.33
57056;BME280;42945;51.718;5.324;2022-07-15T08:20:48;102118.50;;;16.95;60.64
57056;BME280;42945;51.718;5.324;2022-07-15T08:23:14;102140.47;;;17.15;60.44
57056;BME280;42945;51.718;5.324;2022-07-15T08:25:45;102150.53;;;17.38;58.52
57056;BME280;42945;51.718;5.324;2022-07-15T08:28:10;102118.38;;;17.38;57.18
57056;BME280;42945;51.718;5.324;2022-07-15T08:30:35;102187.75;;;17.57;58.53
57056;BME280;42945;51.718;5.324;2022-07-15T08:33:02;102115.94;;;17.21;59.20
57056;BME280;42945;51.718;5.324;2022-07-15T08:35:28;102145.16;;;17.52;58.02
57056;BME280;42945;51.718;5.324;2022-07-15T08:37:54;102248.53;;;18.25;58.91
57056;BME280;42945;51.718;5.324;2022-07-15T08:40:20;102111.56;;;17.60;57.54
57056;BME280;42945;51.718;5.324;2022-07-15T08:42:46;102009.25;;;16.71;58.49
57056;BME280;42945;51.718;5.324;2022-07-15T08:45:15;102121.03;;;17.25;59.96
57056;BME280;42945;51.718;5.324;2022-07-15T08:47:43;102006.75;;;16.68;58.51
57056;BME280;42945;51.718;5.324;2022-07-15T08:50:11;102122.00;;;17.64;58.77
57056;BME280;42945;51.718;5.324;2022-07-15T08:52:38;102130.44;;;17.58;57.68
57056;BME280;42945;51.718;5.324;2022-07-15T08:55:06;102061.09;;;17.39;56.61
57056;BME280;42945;51.718;5.324;2022-07-15T08:57:32;102145.84;;;17.69;55.74
57056;BME280;42945;51.718;5.324;2022-07-15T08:59:57;102093.53;;;17.62;55.15
57056;BME280;42945;51.718;5.324;2022-07-15T09:02:23;102006.13;;;17.19;56.15
57056;BME280;42945;51.718;5.324;2022-07-15T09:05:21;102021.53;;;17.16;54.91
57056;BME280;42945;51.718;5.324;2022-07-15T09:08:04;101903.03;;;16.85;54.44
57056;BME280;42945;51.718;5.324;2022-07-15T09:13:05;102119.75;;;18.11;56.18
57056;BME280;42945;51.718;5.324;2022-07-15T09:15:32;102127.59;;;18.01;54.64
57056;BME280;42945;51.718;5.324;2022-07-15T09:18:13;103929.59;;;29.13;55.03
57056;BME280;42945;51.718;5.324;2022-07-15T09:20:41;101929.91;;;18.00;55.66
57056;BME280;42945;51.718;5.324;2022-07-15T09:23:07;102119.63;;;18.51;53.30
57056;BME280;42945;51.718;5.324;2022-07-15T09:25:35;102146.38;;;18.14;53.52
57056;BME280;42945;51.718;5.324;2022-07-15T09:28:03;102004.31;;;18.11;52.95
57056;BME280;42945;51.718;5.324;2022-07-15T09:30:34;102113.59;;;18.86;52.03
57056;BME280;42945;51.718;5.324;2022-07-15T09:33:23;102130.50;;;19.12;51.10
57056;BME280;42945;51.718;5.324;2022-07-15T09:38:32;102303.97;;;18.79;52.95
57056;BME280;42945;51.718;5.324;2022-07-15T09:40:58;102123.13;;;18.90;53.84
57056;BME280;42945;51.718;5.324;2022-07-15T09:43:24;102011.97;;;18.78;52.17
57056;BME280;42945;51.718;5.324;2022-07-15T09:46:00;102115.59;;;19.08;51.85
57056;BME280;42945;51.718;5.324;2022-07-15T09:48:26;101986.16;;;18.02;52.29
57056;BME280;42945;51.718;5.324;2022-07-15T09:51:00;102011.94;;;18.67;51.29
57056;BME280;42945;51.718;5.324;2022-07-15T09:53:26;102094.53;;;19.26;51.48
57056;BME280;42945;51.718;5.324;2022-07-15T09:55:52;102110.78;;;19.48;52.03
57056;BME280;42945;51.718;5.324;2022-07-15T09:58:19;102068.06;;;18.96;50.90
57056;BME280;42945;51.718;5.324;2022-07-15T10:00:44;102129.97;;;18.57;52.44
57056;BME280;42945;51.718;5.324;2022-07-15T10:03:11;102130.25;;;19.28;51.70
57056;BME280;42945;51.718;5.324;2022-07-15T10:05:38;102069.00;;;19.07;51.03
57056;BME280;42945;51.718;5.324;2022-07-15T10:08:05;102080.44;;;19.46;51.34
57056;BME280;42945;51.718;5.324;2022-07-15T10:10:32;102125.97;;;19.74;50.60
57056;BME280;42945;51.718;5.324;2022-07-15T10:15:47;102142.31;;;19.71;51.31
57056;BME280;42945;51.718;5.324;2022-07-15T10:29:38;102063.88;;;20.44;49.01
57056;BME280;42945;51.718;5.324;2022-07-15T10:32:03;102052.84;;;20.14;47.09
57056;BME280;42945;51.718;5.324;2022-07-15T10:34:33;101426.28;;;20.34;48.36
57056;BME280;42945;51.718;5.324;2022-07-15T10:37:01;102079.06;;;20.68;48.80
57056;BME280;42945;51.718;5.324;2022-07-15T10:42:11;102062.41;;;20.52;48.24
57056;BME280;42945;51.718;5.324;2022-07-15T10:44:49;102044.66;;;20.26;48.63
57056;BME280;42945;51.718;5.324;2022-07-15T10:49:40;101809.78;;;20.33;44.61
57056;BME280;42945;51.718;5.324;2022-07-15T10:52:11;102057.16;;;21.16;46.90
57056;BME280;42945;51.718;5.324;2022-07-15T10:54:38;101949.97;;;20.42;45.91
57056;BME280;42945;51.718;5.324;2022-07-15T10:57:05;101926.03;;;20.05;47.28
57056;BME280;42945;51.718;5.324;2022-07-15T10:59:39;102073.44;;;20.49;48.16
57056;BME280;42945;51.718;5.324;2022-07-15T11:02:14;102036.19;;;20.31;47.76
57056;BME280;42945;51.718;5.324;2022-07-15T11:04:39;102050.25;;;21.23;47.42
57056;BME280;42945;51.718;5.324;2022-07-15T11:15:12;101936.09;;;21.23;45.78
57056;BME280;42945;51.718;5.324;2022-07-15T11:17:43;102048.69;;;21.53;46.11
57056;BME280;42945;51.718;5.324;2022-07-15T11:20:17;102062.66;;;21.58;45.12
57056;BME280;42945;51.718;5.324;2022-07-15T11:22:46;102037.09;;;21.30;45.44
57056;BME280;42945;51.718;5.324;2022-07-15T11:27:56;102011.00;;;21.52;45.59
57056;BME280;42945;51.718;5.324;2022-07-15T11:30:23;102042.16;;;21.23;45.67
57056;BME280;42945;51.718;5.324;2022-07-15T11:32:54;102147.03;;;22.35;46.17
57056;BME280;42945;51.718;5.324;2022-07-15T11:35:20;102133.44;;;22.46;45.62
57056;BME280;42945;51.718;5.324;2022-07-15T11:37:45;102020.69;;;22.27;42.79
57056;BME280;42945;51.718;5.324;2022-07-15T11:40:16;102172.16;;;23.08;43.76
57056;BME280;42945;51.718;5.324;2022-07-15T11:43:04;102034.16;;;21.66;43.95
57056;BME280;42945;51.718;5.324;2022-07-15T11:45:48;101969.03;;;21.27;43.94
57056;BME280;42945;51.718;5.324;2022-07-15T11:48:14;101970.06;;;22.29;43.91
57056;BME280;42945;51.718;5.324;2022-07-15T11:50:51;101962.28;;;22.05;44.70
57056;BME280;42945;51.718;5.324;2022-07-15T11:53:17;102031.06;;;22.53;43.01
57056;BME280;42945;51.718;5.324;2022-07-15T11:55:56;102051.53;;;23.45;41.94
57056;BME280;42945;51.718;5.324;2022-07-15T11:58:34;102030.59;;;23.27;42.49
57056;BME280;42945;51.718;5.324;2022-07-15T12:01:06;102028.25;;;22.93;41.66
57056;BME280;42945;51.718;5.324;2022-07-15T12:03:51;102033.63;;;22.74;40.96
57056;BME280;42945;51.718;5.324;2022-07-15T12:06:18;102033.38;;;22.77;42.16
57056;BME280;42945;51.718;5.324;2022-07-15T12:08:48;102016.88;;;22.80;44.16
57056;BME280;42945;51.718;5.324;2022-07-15T12:11:17;101860.56;;;21.23;43.00
57056;BME280;42945;51.718;5.324;2022-07-15T12:13:45;102036.84;;;22.17;43.02
57056;BME280;42945;51.718;5.324;2022-07-15T12:16:12;102016.47;;;22.13;43.64
57056;BME280;42945;51.718;5.324;2022-07-15T12:18:38;102073.63;;;22.30;43.62
57056;BME280;42945;51.718;5.324;2022-07-15T12:21:04;102033.38;;;22.27;43.14
57056;BME280;42945;51.718;5.324;2022-07-15T12:26:26;101893.91;;;21.22;45.28
57056;BME280;42945;51.718;5.324;2022-07-15T12:29:00;102006.25;;;21.86;44.08
57056;BME280;42945;51.718;5.324;2022-07-15T12:31:32;101913.00;;;20.88;44.90
57056;BME280;42945;51.718;5.324;2022-07-15T12:33:58;102008.41;;;20.97;44.80
57056;BME280;42945;51.718;5.324;2022-07-15T12:36:27;102043.22;;;21.43;45.96
57056;BME280;42945;51.718;5.324;2022-07-15T12:41:36;102038.47;;;21.24;47.09
57056;BME280;42945;51.718;5.324;2022-07-15T12:44:03;102024.31;;;21.43;45.15
57056;BME280;42945;51.718;5.324;2022-07-15T12:49:50;102032.16;;;22.19;45.26
57056;BME280;42945;51.718;5.324;2022-07-15T12:52:29;102029.88;;;22.46;44.72
57056;BME280;42945;51.718;5.324;2022-07-15T12:54:56;102025.00;;;22.30;44.13
57056;BME280;42945;51.718;5.324;2022-07-15T12:57:32;102289.94;;;24.03;43.99
57056;BME280;42945;51.718;5.324;2022-07-15T13:00:05;102063.75;;;21.98;46.19
57056;BME280;42945;51.718;5.324;2022-07-15T13:02:31;102003.09;;;22.33;45.57
57056;BME280;42945;51.718;5.324;2022-07-15T13:04:57;102054.81;;;21.76;45.88
57056;BME280;42945;51.718;5.324;2022-07-15T13:07:23;129927.09;;;189.88;41.99
57056;BME280;42945;51.718;5.324;2022-07-15T13:09:49;102052.69;;;21.59;46.30
57056;BME280;42945;51.718;5.324;2022-07-15T13:12:14;102052.16;;;22.07;46.26
57056;BME280;42945;51.718;5.324;2022-07-15T13:14:40;102023.66;;;22.24;44.94
57056;BME280;42945;51.718;5.324;2022-07-15T13:17:06;102027.97;;;22.06;44.89
57056;BME280;42945;51.718;5.324;2022-07-15T13:19:32;102034.81;;;22.91;44.71
57056;BME280;42945;51.718;5.324;2022-07-15T13:21:58;102041.22;;;22.30;45.25
57056;BME280;42945;51.718;5.324;2022-07-15T13:24:23;101904.34;;;21.57;44.45
57056;BME280;42945;51.718;5.324;2022-07-15T13:26:49;102023.78;;;21.92;46.09
57056;BME280;42945;51.718;5.324;2022-07-15T13:29:14;101981.00;;;22.78;44.41
57056;BME280;42945;51.718;5.324;2022-07-15T13:31:39;102049.25;;;22.51;44.05
57056;BME280;42945;51.718;5.324;2022-07-15T13:34:04;102003.22;;;22.00;45.75